Time;durP1;ratioP1;P1;durP2;ratioP2;P2;SDS_P1;SDS_P2;PMS_P1;PMS_P2;Temp;Humidity;BMP_temperature;BMP_pressure;BME280_temperature;BME280_humidity;BME280_pressure;Samples;Min_cycle;Max_cycle;Signal;HPM_P1;HPM_P2
2022/02/16 00:00:06;;;;;;;25.20;5.95;;;7.20;99.90;;;;;;4931262;29;20044;-81
2022/02/16 00:02:32;;;;;;;20.42;5.38;;;7.20;99.90;;;;;;4937917;29;20040;-81
2022/02/16 00:04:57;;;;;;;22.08;7.57;;;7.30;99.90;;;;;;4938959;29;20131;-81
2022/02/16 00:07:23;;;;;;;19.98;6.18;;;7.30;99.90;;;;;;4942526;29;20508;-81
2022/02/16 00:09:49;;;;;;;21.60;6.90;;;7.30;99.90;;;;;;4943131;29;20481;-81
2022/02/16 00:12:15;;;;;;;25.35;6.07;;;7.30;99.90;;;;;;4939177;29;20477;-81
2022/02/16 00:14:40;;;;;;;24.80;6.05;;;7.30;99.90;;;;;;4942408;29;20052;-81
2022/02/16 00:17:06;;;;;;;22.77;6.88;;;7.40;99.90;;;;;;4941088;29;20028;-81
2022/02/16 00:19:32;;;;;;;21.65;7.18;;;7.30;99.90;;;;;;4918869;29;20046;-81
2022/02/16 00:21:57;;;;;;;24.75;6.50;;;7.40;99.90;;;;;;4938751;29;20047;-81
2022/02/16 00:24:23;;;;;;;23.63;6.82;;;7.40;99.90;;;;;;4940054;29;20096;-81
2022/02/16 00:26:48;;;;;;;17.98;6.32;;;7.40;99.90;;;;;;4960599;28;20427;-80
2022/02/16 00:29:14;;;;;;;26.27;6.22;;;7.30;99.90;;;;;;4975417;28;20548;-81
2022/02/16 00:31:41;;;;;;;19.05;6.00;;;7.30;99.90;;;;;;4963588;28;20413;-80
2022/02/16 00:34:07;;;;;;;18.92;5.50;;;7.30;99.90;;;;;;4976049;28;20030;-81
2022/02/16 00:36:33;;;;;;;16.58;5.85;;;7.30;99.90;;;;;;4961888;28;20630;-81
2022/02/16 00:39:00;;;;;;;15.63;5.75;;;7.30;99.90;;;;;;4968484;28;20057;-81
2022/02/16 00:41:29;;;;;;;21.52;5.70;;;7.20;99.90;;;;;;4942045;28;20034;-81
2022/02/16 00:43:55;;;;;;;20.77;5.10;;;7.20;99.90;;;;;;4971687;28;20027;-81
2022/02/16 00:46:21;;;;;;;19.80;4.85;;;7.20;99.90;;;;;;4937710;28;20201;-79
2022/02/16 00:48:46;;;;;;;20.58;4.90;;;7.20;99.90;;;;;;4959170;28;20030;-79
2022/02/16 00:51:12;;;;;;;16.13;5.00;;;7.20;99.90;;;;;;4975265;28;20023;-80
2022/02/16 00:53:38;;;;;;;19.77;5.22;;;7.20;99.90;;;;;;4962469;28;20027;-79
2022/02/16 00:56:04;;;;;;;22.70;5.38;;;7.20;99.90;;;;;;4940160;28;20027;-79
2022/02/16 00:58:29;;;;;;;21.85;5.10;;;7.20;99.90;;;;;;4956579;28;20047;-79
2022/02/16 01:00:55;;;;;;;26.10;4.78;;;7.20;99.90;;;;;;4963786;28;20042;-79
2022/02/16 01:03:21;;;;;;;20.60;4.60;;;7.20;99.90;;;;;;4957428;28;20042;-79
2022/02/16 01:05:46;;;;;;;18.48;4.55;;;7.20;99.90;;;;;;4962555;28;20031;-79
2022/02/16 01:08:13;;;;;;;20.17;5.03;;;7.20;99.90;;;;;;4941580;28;20034;-79
2022/02/16 01:10:41;;;;;;;20.52;5.05;;;7.30;99.90;;;;;;4976558;28;20565;-79
2022/02/16 01:13:07;;;;;;;27.10;5.18;;;7.30;99.90;;;;;;4950464;28;20030;-79
2022/02/16 01:15:33;;;;;;;22.27;5.47;;;7.30;99.90;;;;;;4960739;28;20086;-79
2022/02/16 01:17:58;;;;;;;18.50;4.55;;;7.30;99.90;;;;;;4974693;28;20591;-79
2022/02/16 01:20:24;;;;;;;14.50;3.85;;;7.20;99.90;;;;;;4966708;28;20050;-79
2022/02/16 01:22:50;;;;;;;20.50;5.03;;;7.20;99.90;;;;;;4986769;28;20113;-79
2022/02/16 01:25:16;;;;;;;21.10;5.03;;;7.20;99.90;;;;;;4955033;28;20027;-79
2022/02/16 01:27:42;;;;;;;20.20;5.45;;;7.20;99.90;;;;;;4944613;28;20098;-79
2022/02/16 01:30:09;;;;;;;18.02;5.10;;;7.20;99.90;;;;;;4972040;28;20423;-78
2022/02/16 01:32:35;;;;;;;16.70;5.60;;;7.30;99.90;;;;;;4960645;28;20063;-79
2022/02/16 01:35:01;;;;;;;16.40;5.55;;;7.20;99.90;;;;;;4971929;28;20033;-78
2022/02/16 01:37:26;;;;;;;15.60;5.22;;;7.20;99.90;;;;;;4976078;28;20026;-79
2022/02/16 01:39:52;;;;;;;18.58;6.80;;;7.20;99.90;;;;;;4959614;28;20038;-81
2022/02/16 01:42:21;;;;;;;19.02;7.43;;;7.20;99.90;;;;;;4955750;28;20042;-79
2022/02/16 01:44:47;;;;;;;29.17;11.48;;;7.20;99.90;;;;;;4970445;28;20019;-79
2022/02/16 01:47:12;;;;;;;23.33;11.75;;;7.30;99.90;;;;;;4956071;28;20086;-79
2022/02/16 01:49:40;;;;;;;19.65;8.48;;;7.30;99.90;;;;;;4959847;28;20034;-79
2022/02/16 01:52:07;;;;;;;23.05;10.68;;;7.30;99.90;;;;;;4976439;28;20090;-79
2022/02/16 01:54:34;;;;;;;27.00;11.60;;;7.30;99.90;;;;;;4950131;28;20038;-79
2022/02/16 01:56:59;;;;;;;24.55;12.98;;;7.40;99.90;;;;;;4959537;28;20018;-79
2022/02/16 01:59:27;;;;;;;25.35;11.25;;;7.40;99.90;;;;;;4952329;28;20046;-79
2022/02/16 02:01:53;;;;;;;26.00;11.85;;;7.50;99.90;;;;;;4973070;28;20035;-78
2022/02/16 02:04:20;;;;;;;26.50;12.20;;;7.50;99.90;;;;;;4966648;28;20042;-79
2022/02/16 02:06:47;;;;;;;26.25;12.45;;;7.50;99.90;;;;;;4959054;28;20031;-79
2022/02/16 02:09:13;;;;;;;24.52;12.40;;;7.60;99.90;;;;;;4942219;28;20034;-78
2022/02/16 02:11:39;;;;;;;26.33;12.73;;;7.60;99.90;;;;;;4971524;28;20058;-79
2022/02/16 02:14:07;;;;;;;28.17;12.10;;;7.60;99.90;;;;;;4974177;28;20019;-78
2022/02/16 02:16:36;;;;;;;21.77;11.45;;;7.60;99.90;;;;;;4974753;28;20034;-79
2022/02/16 02:19:03;;;;;;;28.30;13.25;;;7.60;99.90;;;;;;4957421;28;20033;-79
2022/02/16 02:21:28;;;;;;;22.52;12.73;;;7.60;99.90;;;;;;4972928;28;20066;-78
2022/02/16 02:23:56;;;;;;;27.58;13.82;;;7.60;99.90;;;;;;4961232;28;20039;-79
2022/02/16 02:26:22;;;;;;;26.15;13.02;;;7.60;99.90;;;;;;4977389;28;20521;-78
2022/02/16 02:28:49;;;;;;;22.83;13.90;;;7.60;99.90;;;;;;4969987;28;20043;-79
2022/02/16 02:31:14;;;;;;;24.67;13.70;;;7.60;99.90;;;;;;4959997;28;20027;-78
2022/02/16 02:33:40;;;;;;;24.60;13.88;;;7.60;99.90;;;;;;4978112;28;20027;-79
2022/02/16 02:36:07;;;;;;;28.67;15.20;;;7.60;99.90;;;;;;4962461;28;20046;-79
2022/02/16 02:38:33;;;;;;;28.08;15.15;;;7.60;99.90;;;;;;4961207;28;20042;-79
2022/02/16 02:41:01;;;;;;;31.02;16.58;;;7.60;99.90;;;;;;4948856;28;20396;-79
2022/02/16 02:43:28;;;;;;;32.47;17.98;;;7.60;99.90;;;;;;4976675;28;20042;-78
2022/02/16 02:45:55;;;;;;;30.38;17.45;;;7.60;99.90;;;;;;4958736;28;20117;-79
2022/02/16 02:48:22;;;;;;;30.63;16.58;;;7.70;99.90;;;;;;4977962;28;20035;-79
2022/02/16 02:50:49;;;;;;;26.95;15.18;;;7.70;99.90;;;;;;4957421;28;20034;-79
2022/02/16 02:53:15;;;;;;;27.63;16.17;;;7.70;99.90;;;;;;4973678;28;20050;-79
2022/02/16 02:55:40;;;;;;;26.60;15.32;;;7.70;99.90;;;;;;4954206;28;20038;-79
2022/02/16 02:58:06;;;;;;;27.77;17.17;;;7.70;99.90;;;;;;4962365;28;20027;-79
2022/02/16 03:00:32;;;;;;;31.10;16.50;;;7.70;99.90;;;;;;4959279;28;20034;-79
2022/02/16 03:02:58;;;;;;;31.77;18.60;;;7.70;99.90;;;;;;4972514;28;20066;-79
2022/02/16 03:05:23;;;;;;;28.25;16.92;;;7.80;99.90;;;;;;4960538;28;20027;-79
2022/02/16 03:07:50;;;;;;;33.40;18.77;;;7.80;99.90;;;;;;4954335;28;20094;-80
2022/02/16 03:10:16;;;;;;;36.28;19.27;;;7.80;99.90;;;;;;4972531;28;20022;-79
2022/02/16 03:12:42;;;;;;;30.35;18.23;;;7.80;99.90;;;;;;4968657;28;20033;-80
2022/02/16 03:15:09;;;;;;;29.00;18.45;;;7.80;99.90;;;;;;4969166;28;20028;-79
2022/02/16 03:17:34;;;;;;;33.30;18.52;;;7.80;99.90;;;;;;4976786;28;20031;-79
2022/02/16 03:20:00;;;;;;;31.02;18.33;;;7.80;99.90;;;;;;4960050;28;20035;-79
2022/02/16 03:22:26;;;;;;;32.97;17.92;;;7.80;99.90;;;;;;4959512;28;20046;-79
2022/02/16 03:24:52;;;;;;;30.50;17.35;;;7.80;99.90;;;;;;4971685;28;20133;-79
2022/02/16 03:27:17;;;;;;;29.13;16.88;;;7.90;99.90;;;;;;4961128;28;20602;-80
2022/02/16 03:29:43;;;;;;;32.63;17.60;;;7.90;99.90;;;;;;4955517;28;20554;-79
2022/02/16 03:32:09;;;;;;;30.92;17.27;;;7.90;99.90;;;;;;4976265;28;20027;-78
2022/02/16 03:34:35;;;;;;;30.95;17.42;;;7.90;99.90;;;;;;4956107;28;20561;-79
2022/02/16 03:37:00;;;;;;;30.17;16.83;;;7.90;99.90;;;;;;4976414;28;20027;-78
2022/02/16 03:39:26;;;;;;;32.55;18.73;;;7.90;99.90;;;;;;4956619;28;20031;-78
2022/02/16 03:41:52;;;;;;;30.80;16.60;;;7.90;99.90;;;;;;4956677;28;21482;-79
2022/02/16 03:44:18;;;;;;;31.90;17.98;;;7.90;99.90;;;;;;4977616;28;20511;-80
2022/02/16 03:46:44;;;;;;;28.95;16.60;;;7.90;99.90;;;;;;4957861;28;20062;-80
2022/02/16 03:49:10;;;;;;;28.67;16.33;;;7.90;99.90;;;;;;4975233;28;20495;-80
2022/02/16 03:51:35;;;;;;;26.63;15.10;;;7.90;99.90;;;;;;4956454;28;20050;-79
2022/02/16 03:54:01;;;;;;;28.27;16.45;;;7.90;99.90;;;;;;4946769;28;20031;-79
2022/02/16 03:56:27;;;;;;;29.77;16.70;;;7.90;99.90;;;;;;4974078;28;20035;-79
2022/02/16 03:58:53;;;;;;;30.13;17.33;;;7.90;99.90;;;;;;4977173;28;20292;-80
2022/02/16 04:01:19;;;;;;;30.45;16.05;;;7.90;99.90;;;;;;4959478;28;20019;-79
2022/02/16 04:03:45;;;;;;;26.92;14.43;;;7.90;99.90;;;;;;4958086;28;20528;-79
2022/02/16 04:06:11;;;;;;;24.08;14.35;;;7.90;99.90;;;;;;4958026;28;20031;-80
2022/02/16 04:08:37;;;;;;;25.55;14.95;;;7.90;99.90;;;;;;4956330;28;20448;-80
2022/02/16 04:11:04;;;;;;;24.63;14.50;;;7.90;99.90;;;;;;4975336;28;20112;-80
2022/02/16 04:13:30;;;;;;;22.33;13.10;;;7.90;99.90;;;;;;4960351;28;20654;-79
2022/02/16 04:15:56;;;;;;;25.00;13.82;;;7.90;99.90;;;;;;4942328;28;20052;-79
2022/02/16 04:18:22;;;;;;;24.73;13.40;;;7.90;99.90;;;;;;4946779;28;20038;-79
2022/02/16 04:20:47;;;;;;;22.85;13.15;;;7.90;99.90;;;;;;4942691;28;20410;-79
2022/02/16 04:23:13;;;;;;;22.10;12.88;;;7.90;99.90;;;;;;4956461;28;20076;-79
2022/02/16 04:25:39;;;;;;;23.25;12.43;;;7.90;99.90;;;;;;4957224;28;20039;-79
2022/02/16 04:28:05;;;;;;;21.55;12.30;;;7.90;99.90;;;;;;4968928;28;20419;-79
2022/02/16 04:30:31;;;;;;;20.15;10.65;;;7.90;99.90;;;;;;4975463;28;20051;-80
2022/02/16 04:32:57;;;;;;;23.10;11.30;;;7.90;99.90;;;;;;4968445;28;20019;-80
2022/02/16 04:35:23;;;;;;;55.08;37.00;;;7.90;99.90;;;;;;4972223;28;20345;-79
2022/02/16 04:37:48;;;;;;;19.85;11.23;;;7.90;99.90;;;;;;4966355;28;20023;-79
2022/02/16 04:40:15;;;;;;;20.10;10.70;;;7.90;99.90;;;;;;4970028;28;20070;-79
2022/02/16 04:42:40;;;;;;;22.25;10.18;;;7.90;99.90;;;;;;4955073;28;20075;-79
2022/02/16 04:45:07;;;;;;;16.58;9.40;;;7.90;99.90;;;;;;4974831;28;20023;-80
2022/02/16 04:47:32;;;;;;;19.20;9.88;;;7.90;99.90;;;;;;4990265;28;20026;-79
2022/02/16 04:49:58;;;;;;;18.52;8.90;;;7.90;99.90;;;;;;4963867;28;20034;-79
2022/02/16 04:52:34;;;;;;;21.55;8.98;;;7.90;99.90;;;;;;4959811;28;20046;-79
2022/02/16 04:55:11;;;;;;;19.00;9.40;;;7.90;99.90;;;;;;4960187;28;20039;-79
2022/02/16 04:57:37;;;;;;;19.08;9.43;;;7.90;99.90;;;;;;4962314;28;20046;-79
2022/02/16 05:00:05;;;;;;;21.58;10.48;;;7.90;99.90;;;;;;4976051;28;20209;-81
2022/02/16 05:02:31;;;;;;;17.70;9.40;;;8.00;99.90;;;;;;4976664;28;20050;-83
2022/02/16 05:04:56;;;;;;;17.55;9.52;;;8.00;99.90;;;;;;4942008;28;20038;-81
2022/02/16 05:07:22;;;;;;;19.67;9.88;;;8.00;99.90;;;;;;4952043;28;20027;-81
2022/02/16 05:09:48;;;;;;;18.55;9.73;;;8.10;99.90;;;;;;4959800;28;20062;-82
2022/02/16 05:12:15;;;;;;;18.95;10.07;;;8.10;99.90;;;;;;4956398;28;20491;-81
2022/02/16 05:14:41;;;;;;;20.33;11.15;;;8.10;99.90;;;;;;4939379;28;20026;-86
2022/02/16 05:17:07;;;;;;;19.75;10.82;;;8.10;99.90;;;;;;4941312;28;20045;-79
2022/02/16 05:19:33;;;;;;;19.85;10.95;;;8.10;99.90;;;;;;4969459;28;20035;-79
2022/02/16 05:21:59;;;;;;;19.55;11.25;;;8.10;99.90;;;;;;4974618;28;20094;-79
2022/02/16 05:24:24;;;;;;;19.75;11.65;;;8.10;99.90;;;;;;4958536;28;20034;-79
2022/02/16 05:26:51;;;;;;;23.10;12.40;;;8.20;99.90;;;;;;4963068;28;20042;-79
2022/02/16 05:29:17;;;;;;;22.42;12.68;;;8.10;99.90;;;;;;4973891;28;20023;-79
2022/02/16 05:31:43;;;;;;;22.48;12.90;;;8.20;99.90;;;;;;4960142;28;20043;-79
2022/02/16 05:34:10;;;;;;;21.83;12.05;;;8.20;99.90;;;;;;4943783;28;20062;-79
2022/02/16 05:36:37;;;;;;;23.92;13.00;;;8.30;99.90;;;;;;4976720;28;20042;-79
2022/02/16 05:39:03;;;;;;;21.25;12.55;;;8.30;99.90;;;;;;4976994;28;20031;-80
2022/02/16 05:41:30;;;;;;;21.35;12.90;;;8.40;99.90;;;;;;4956469;28;20022;-79
2022/02/16 05:43:56;;;;;;;18.92;11.65;;;8.40;99.90;;;;;;4977530;28;20077;-78
2022/02/16 05:46:22;;;;;;;20.38;12.02;;;8.40;99.90;;;;;;4971570;28;20085;-79
2022/02/16 05:48:48;;;;;;;19.38;12.50;;;8.40;99.90;;;;;;4977172;28;20119;-81
2022/02/16 05:51:13;;;;;;;20.35;12.18;;;8.40;99.90;;;;;;4954876;28;20115;-78
2022/02/16 05:53:39;;;;;;;19.95;12.25;;;8.40;99.90;;;;;;4959048;28;20103;-78
2022/02/16 05:56:05;;;;;;;20.17;12.75;;;8.40;99.90;;;;;;4959816;28;20094;-78
2022/02/16 05:58:31;;;;;;;19.33;11.75;;;8.40;99.90;;;;;;4971896;28;20046;-79
2022/02/16 06:00:57;;;;;;;23.70;12.60;;;8.40;99.90;;;;;;4930865;28;20037;-79
2022/02/16 06:03:23;;;;;;;19.88;12.65;;;8.40;99.90;;;;;;4960947;28;20042;-79
2022/02/16 06:05:49;;;;;;;21.10;11.63;;;8.30;99.90;;;;;;4948747;28;20047;-79
2022/02/16 06:08:14;;;;;;;20.02;11.88;;;8.30;99.90;;;;;;4964134;28;20034;-79
2022/02/16 06:10:40;;;;;;;17.42;10.57;;;8.30;99.90;;;;;;4945454;28;20077;-78
2022/02/16 06:13:06;;;;;;;16.58;9.90;;;8.30;99.90;;;;;;4947221;28;20046;-78
2022/02/16 06:15:32;;;;;;;16.63;10.13;;;8.30;99.90;;;;;;4962451;28;20066;-78
2022/02/16 06:17:58;;;;;;;16.95;10.43;;;8.40;99.90;;;;;;4965974;28;20086;-78
2022/02/16 06:20:23;;;;;;;18.45;10.93;;;8.30;99.90;;;;;;4958490;28;20027;-79
2022/02/16 06:22:52;;;;;;;18.83;11.30;;;8.40;99.90;;;;;;4963414;28;20038;-79
2022/02/16 06:25:18;;;;;;;19.35;10.95;;;8.40;99.90;;;;;;4953612;28;20391;-78
2022/02/16 06:27:43;;;;;;;14.57;9.52;;;8.40;99.90;;;;;;4959831;28;20048;-78
2022/02/16 06:30:09;;;;;;;15.07;9.23;;;8.40;99.90;;;;;;4943326;28;20038;-78
2022/02/16 06:32:35;;;;;;;12.95;8.70;;;8.40;99.90;;;;;;4963644;28;20038;-78
2022/02/16 06:35:01;;;;;;;13.13;8.18;;;8.40;99.90;;;;;;4933713;28;20031;-78
2022/02/16 06:37:27;;;;;;;12.40;7.80;;;8.40;99.90;;;;;;4963172;28;20023;-79
2022/02/16 06:39:53;;;;;;;11.32;6.97;;;8.40;99.90;;;;;;4976741;28;20031;-78
2022/02/16 06:42:19;;;;;;;9.98;6.90;;;8.40;99.90;;;;;;4954394;28;20078;-79
2022/02/16 06:44:45;;;;;;;10.10;6.00;;;8.40;99.90;;;;;;4963598;28;20043;-79
2022/02/16 06:47:11;;;;;;;9.75;5.50;;;8.40;99.90;;;;;;4972408;28;20027;-79
2022/02/16 06:49:37;;;;;;;10.55;6.10;;;8.50;99.90;;;;;;4977373;28;20067;-79
2022/02/16 06:52:03;;;;;;;8.50;4.85;;;8.50;99.90;;;;;;4971671;28;20023;-79
2022/02/16 06:54:31;;;;;;;8.40;4.88;;;8.60;99.90;;;;;;4973377;28;20026;-79
2022/02/16 06:56:57;;;;;;;9.70;4.65;;;8.60;99.90;;;;;;4983000;28;20027;-79
2022/02/16 06:59:23;;;;;;;9.10;4.93;;;8.60;99.90;;;;;;4969265;28;20046;-79
2022/02/16 07:01:49;;;;;;;8.82;4.70;;;8.60;99.90;;;;;;4940984;28;20103;-79
2022/02/16 07:04:14;;;;;;;9.50;5.05;;;8.60;99.90;;;;;;4945445;28;20027;-79
2022/02/16 07:06:40;;;;;;;7.80;4.57;;;8.70;99.90;;;;;;4960598;28;20063;-78
2022/02/16 07:09:06;;;;;;;8.43;4.70;;;8.70;99.90;;;;;;4959762;28;20061;-78
2022/02/16 07:11:31;;;;;;;9.07;4.40;;;8.70;99.90;;;;;;4951667;28;20027;-78
2022/02/16 07:13:57;;;;;;;9.40;4.75;;;8.80;99.90;;;;;;4978874;28;20022;-79
2022/02/16 07:16:23;;;;;;;9.02;4.35;;;8.80;99.90;;;;;;4956394;28;20053;-79
2022/02/16 07:18:49;;;;;;;7.40;3.78;;;8.80;99.90;;;;;;4961104;28;20036;-79
2022/02/16 07:21:14;;;;;;;8.07;4.07;;;8.80;99.90;;;;;;4969106;28;20039;-79
2022/02/16 07:23:40;;;;;;;9.23;3.90;;;8.90;99.90;;;;;;4945346;28;20062;-79
2022/02/16 07:26:06;;;;;;;7.53;3.50;;;8.90;99.90;;;;;;4954415;28;20109;-79
2022/02/16 07:28:32;;;;;;;7.70;3.33;;;9.00;99.90;;;;;;4957604;28;20141;-79
2022/02/16 07:30:58;;;;;;;6.28;2.90;;;9.00;99.90;;;;;;4961590;28;20031;-79
2022/02/16 07:33:24;;;;;;;6.47;3.17;;;9.00;99.90;;;;;;4971687;28;20018;-79
2022/02/16 07:35:51;;;;;;;6.55;3.03;;;9.00;99.90;;;;;;4954916;28;20030;-79
2022/02/16 07:38:16;;;;;;;6.55;3.22;;;9.00;99.90;;;;;;4957133;28;20078;-79
2022/02/16 07:40:42;;;;;;;7.47;3.08;;;9.10;99.90;;;;;;4961265;28;20400;-79
2022/02/16 07:43:08;;;;;;;6.65;2.75;;;9.10;99.90;;;;;;4958390;28;20426;-79
2022/02/16 07:45:34;;;;;;;5.95;2.63;;;9.20;99.90;;;;;;4969238;28;20031;-79
2022/02/16 07:48:00;;;;;;;6.03;2.75;;;9.20;99.90;;;;;;4971344;28;20042;-78
2022/02/16 07:50:27;;;;;;;6.53;2.60;;;9.20;99.90;;;;;;4959791;28;20027;-79
2022/02/16 07:52:54;;;;;;;6.03;2.28;;;9.30;99.90;;;;;;4958649;28;20043;-79
2022/02/16 07:55:20;;;;;;;6.43;2.45;;;9.30;99.90;;;;;;4969006;28;20018;-79
2022/02/16 07:57:46;;;;;;;6.65;2.20;;;9.30;99.90;;;;;;4951238;28;20087;-79
2022/02/16 08:00:13;;;;;;;6.07;2.40;;;9.30;99.90;;;;;;4952718;28;20035;-79
2022/02/16 08:02:38;;;;;;;6.13;2.40;;;9.40;99.90;;;;;;4959396;28;20527;-79
2022/02/16 08:05:04;;;;;;;6.05;2.47;;;9.40;99.90;;;;;;4958074;28;20031;-78
2022/02/16 08:07:30;;;;;;;5.72;2.38;;;9.50;99.90;;;;;;4954242;28;20030;-79
2022/02/16 08:09:56;;;;;;;5.47;2.22;;;9.50;99.90;;;;;;4960843;28;20113;-83
2022/02/16 08:12:21;;;;;;;6.00;2.60;;;9.50;99.90;;;;;;4939301;28;20031;-80
2022/02/16 08:14:47;;;;;;;6.35;2.60;;;9.50;99.90;;;;;;4944085;28;20037;-81
2022/02/16 08:17:13;;;;;;;6.72;2.70;;;9.50;99.90;;;;;;4970567;28;20066;-78
2022/02/16 08:19:38;;;;;;;5.68;2.67;;;9.60;99.90;;;;;;4941060;28;20023;-78
2022/02/16 08:22:04;;;;;;;6.20;2.40;;;9.60;99.90;;;;;;4957456;28;20035;-77
2022/02/16 08:24:31;;;;;;;6.10;2.40;;;9.60;99.90;;;;;;4952016;28;20019;-78
2022/02/16 08:26:59;;;;;;;5.57;2.25;;;9.60;99.90;;;;;;4959426;28;20058;-77
2022/02/16 08:29:25;;;;;;;6.10;2.75;;;9.60;99.90;;;;;;4953556;28;20397;-77
2022/02/16 08:31:51;;;;;;;5.57;2.50;;;9.60;99.90;;;;;;4967357;28;20054;-78
2022/02/16 08:34:18;;;;;;;5.60;2.63;;;9.70;99.90;;;;;;4957070;28;20034;-78
2022/02/16 08:36:45;;;;;;;5.00;2.00;;;9.70;99.90;;;;;;4963610;28;20050;-78
2022/02/16 08:39:11;;;;;;;6.18;2.42;;;9.70;99.90;;;;;;4965362;28;20034;-78
2022/02/16 08:41:38;;;;;;;6.22;2.47;;;9.80;99.90;;;;;;4950896;28;20144;-79
2022/02/16 08:44:04;;;;;;;5.38;2.47;;;9.80;99.90;;;;;;4950232;28;20036;-79
2022/02/16 08:46:31;;;;;;;5.45;2.13;;;9.80;99.90;;;;;;4946992;28;20063;-79
2022/02/16 08:49:01;;;;;;;5.13;2.40;;;9.80;99.90;;;;;;4965599;28;20081;-78
2022/02/16 08:51:28;;;;;;;5.22;2.30;;;9.80;99.90;;;;;;4968107;28;20034;-78
2022/02/16 08:53:54;;;;;;;5.45;2.45;;;9.80;99.90;;;;;;4954842;28;20047;-80
2022/02/16 08:56:20;;;;;;;5.93;2.50;;;9.90;99.90;;;;;;4962391;28;20131;-79
2022/02/16 08:58:45;;;;;;;5.78;2.20;;;9.90;99.90;;;;;;4954596;28;20037;-79
2022/02/16 09:01:12;;;;;;;5.18;2.15;;;9.90;99.90;;;;;;4956029;28;20122;-79
2022/02/16 09:03:37;;;;;;;5.30;2.42;;;9.90;99.90;;;;;;4971817;28;20181;-79
2022/02/16 09:06:03;;;;;;;5.15;2.13;;;9.80;99.90;;;;;;4962366;28;20090;-79
2022/02/16 09:08:28;;;;;;;5.20;2.40;;;9.90;99.90;;;;;;4960176;28;20103;-79
2022/02/16 09:10:54;;;;;;;5.78;2.70;;;9.90;99.90;;;;;;4975579;28;20047;-79
2022/02/16 09:13:20;;;;;;;6.40;2.88;;;9.90;99.90;;;;;;4973955;28;20035;-79
2022/02/16 09:15:46;;;;;;;6.50;3.22;;;9.90;99.90;;;;;;4957891;28;20079;-79
2022/02/16 09:18:15;;;;;;;7.32;3.55;;;10.00;99.90;;;;;;4942233;28;20106;-79
2022/02/16 09:20:45;;;;;;;8.52;3.83;;;10.00;99.90;;;;;;4981246;28;20502;-79
2022/02/16 09:23:11;;;;;;;7.65;4.85;;;10.10;99.90;;;;;;4980064;28;20055;-79
2022/02/16 09:25:37;;;;;;;12.38;5.53;;;10.10;99.90;;;;;;4940038;28;20035;-78
2022/02/16 09:28:03;;;;;;;11.50;5.65;;;10.10;99.90;;;;;;4939886;29;20123;-79
2022/02/16 09:30:30;;;;;;;9.20;4.88;;;10.20;99.90;;;;;;4940185;29;20192;-78
2022/02/16 09:32:55;;;;;;;10.57;5.70;;;10.30;99.90;;;;;;4933605;29;20028;-79
2022/02/16 09:35:21;;;;;;;21.33;6.63;;;10.40;99.90;;;;;;4928235;29;20047;-78
2022/02/16 09:37:47;;;;;;;22.17;5.97;;;10.40;99.90;;;;;;4924207;29;20027;-79
2022/02/16 09:40:13;;;;;;;14.05;5.50;;;10.50;99.90;;;;;;4939242;29;20035;-78
2022/02/16 09:42:41;;;;;;;12.48;4.97;;;10.50;99.90;;;;;;4939989;29;20048;-78
2022/02/16 09:45:10;;;;;;;12.32;5.40;;;10.60;99.90;;;;;;4937247;29;20032;-78
2022/02/16 09:47:40;;;;;;;11.63;4.97;;;10.60;99.90;;;;;;4936150;29;20031;-77
2022/02/16 09:50:07;;;;;;;11.95;4.43;;;10.70;99.90;;;;;;4937558;29;20023;-77
2022/02/16 09:52:33;;;;;;;15.00;4.97;;;10.80;99.90;;;;;;4938188;29;20035;-78
2022/02/16 09:54:59;;;;;;;18.13;5.07;;;10.80;99.90;;;;;;4938448;29;20051;-78
2022/02/16 09:57:25;;;;;;;13.30;4.03;;;10.90;99.90;;;;;;4938638;29;20020;-78
2022/02/16 09:59:51;;;;;;;11.80;4.30;;;10.90;99.90;;;;;;4935982;29;20027;-78
2022/02/16 10:02:18;;;;;;;15.60;3.63;;;11.00;99.90;;;;;;4938359;29;20059;-78
2022/02/16 10:04:55;;;;;;;15.57;3.80;;;11.00;99.90;;;;;;4939380;29;20035;-78
2022/02/16 10:07:34;;;;;;;17.00;4.15;;;11.10;99.90;;;;;;4932966;29;20027;-80
2022/02/16 10:10:17;;;;;;;13.35;2.83;;;11.10;99.90;;;;;;4941722;29;20027;-78
2022/02/16 10:12:45;;;;;;;15.82;3.63;;;11.20;99.90;;;;;;4933201;29;20040;-79
2022/02/16 10:15:21;;;;;;;10.68;2.80;;;11.20;99.90;;;;;;4937813;29;20100;-78
2022/02/16 10:17:48;;;;;;;13.23;4.07;;;11.30;99.90;;;;;;4928382;29;20091;-78
2022/02/16 10:20:18;;;;;;;14.07;2.80;;;11.30;99.90;;;;;;4952311;29;20040;-78
2022/02/16 10:22:46;;;;;;;14.88;3.50;;;11.30;99.90;;;;;;4939395;29;20095;-78
2022/02/16 10:25:22;;;;;;;18.42;3.53;;;11.40;99.90;;;;;;4937482;29;20032;-79
2022/02/16 10:28:10;;;;;;;17.92;3.70;;;11.40;99.90;;;;;;4942552;29;20043;-79
2022/02/16 10:30:57;;;;;;;13.75;3.30;;;11.40;99.90;;;;;;4958571;29;20050;-79
2022/02/16 10:33:34;;;;;;;12.10;3.20;;;11.50;99.90;;;;;;4954277;29;20086;-79
2022/02/16 10:36:00;;;;;;;12.13;3.05;;;11.50;99.90;;;;;;4957735;29;20099;-79
2022/02/16 10:38:26;;;;;;;17.90;3.10;;;11.50;99.90;;;;;;4947995;29;20035;-78
2022/02/16 10:41:05;;;;;;;11.80;3.05;;;11.60;99.90;;;;;;4956611;28;20067;-78
2022/02/16 10:43:37;;;;;;;13.85;2.92;;;11.60;99.90;;;;;;4958850;28;20101;-80
2022/02/16 10:46:16;;;;;;;11.38;2.90;;;11.70;99.90;;;;;;4952561;29;20019;-79
2022/02/16 10:48:41;;;;;;;8.57;2.67;;;11.80;99.90;;;;;;4961798;28;20023;-80
2022/02/16 10:51:23;;;;;;;16.70;3.05;;;11.90;99.90;;;;;;4968880;28;20067;-80
2022/02/16 10:53:51;;;;;;;;;;;11.90;99.90;;;;;;4952812;29;20078;-80
2022/02/16 10:56:16;;;;;;;13.15;2.63;;;11.90;99.90;;;;;;4948185;29;19919;-81
2022/02/16 10:58:42;;;;;;;18.17;3.08;;;12.00;99.90;;;;;;4956315;29;20046;-80
2022/02/16 11:01:10;;;;;;;11.75;2.70;;;12.00;99.90;;;;;;4953995;28;20020;-81
2022/02/16 11:03:39;;;;;;;14.93;3.25;;;12.00;99.90;;;;;;4972837;28;20039;-80
2022/02/16 11:06:11;;;;;;;13.98;2.85;;;12.00;99.90;;;;;;4974463;28;20083;-80
2022/02/16 11:08:38;;;;;;;15.52;2.50;;;12.00;99.90;;;;;;4958580;28;20137;-79
2022/02/16 11:11:05;;;;;;;13.45;2.58;;;12.10;99.90;;;;;;4979383;28;20487;-79
2022/02/16 11:13:33;;;;;;;15.68;2.97;;;12.10;99.90;;;;;;4959870;29;20070;-80
2022/02/16 11:16:01;;;;;;;12.20;2.47;;;12.00;99.90;;;;;;4944341;28;20143;-80
2022/02/16 11:18:29;;;;;;;13.02;2.47;;;12.10;99.90;;;;;;4970914;28;20162;-80
2022/02/16 11:21:15;;;;;;;17.02;2.97;;;12.00;99.90;;;;;;4968041;28;20063;-79
2022/02/16 11:23:45;;;;;;;17.88;2.95;;;12.10;99.90;;;;;;4959214;29;20035;-79
2022/02/16 11:26:30;;;;;;;11.93;2.72;;;12.20;99.90;;;;;;4976272;28;20106;-79
2022/02/16 11:28:57;;;;;;;13.63;2.63;;;12.20;99.90;;;;;;4966388;28;20047;-78
2022/02/16 11:31:33;;;;;;;12.73;2.40;;;12.20;99.90;;;;;;4973687;28;20027;-78
2022/02/16 11:34:20;;;;;;;13.18;3.20;;;12.30;99.90;;;;;;4976992;28;20026;-78
2022/02/16 11:37:02;;;;;;;15.68;3.08;;;12.40;99.90;;;;;;4961410;28;20027;-78
2022/02/16 11:39:49;;;;;;;11.38;2.60;;;12.40;99.90;;;;;;4967242;28;20038;-77
2022/02/16 11:42:38;;;;;;;14.88;2.90;;;12.40;99.90;;;;;;4982203;28;20042;-78
2022/02/16 11:45:05;;;;;;;12.15;2.50;;;12.50;99.90;;;;;;4982307;28;20138;-78
2022/02/16 11:47:34;;;;;;;14.43;3.17;;;12.50;99.90;;;;;;4962492;29;20059;-78
2022/02/16 11:50:14;;;;;;;12.20;2.65;;;12.40;99.90;;;;;;4964037;29;20519;-78
2022/02/16 11:53:01;;;;;;;15.85;3.63;;;12.40;99.90;;;;;;4962433;28;20102;-78
2022/02/16 11:55:36;;;;;;;18.02;3.10;;;12.40;99.90;;;;;;4968924;28;20110;-78
2022/02/16 11:58:02;;;;;;;16.05;2.92;;;12.30;99.90;;;;;;4979647;28;20031;-78
2022/02/16 12:00:33;;;;;;;13.55;2.35;;;12.30;99.90;;;;;;4965205;28;20038;-77
2022/02/16 12:03:05;;;;;;;14.85;2.88;;;12.30;99.90;;;;;;4965177;28;20174;-77
2022/02/16 12:05:45;;;;;;;;;;;12.20;99.90;;;;;;4966630;28;20051;-77
2022/02/16 12:08:15;;;;;;;16.02;2.83;;;12.10;99.90;;;;;;4964513;28;20005;-77
2022/02/16 12:11:17;;;;;;;13.90;2.80;;;12.10;99.90;;;;;;4966179;28;20073;-77
2022/02/16 12:13:58;;;;;;;13.60;3.00;;;12.00;99.90;;;;;;4974461;28;20129;-78
2022/02/16 12:16:44;;;;;;;14.25;2.60;;;12.00;99.90;;;;;;4971919;28;20023;-78
2022/02/16 12:19:19;;;;;;;19.73;3.47;;;11.90;99.90;;;;;;4962250;28;20046;-78
2022/02/16 12:21:50;;;;;;;14.75;2.83;;;11.90;99.90;;;;;;4976004;28;20073;-79
2022/02/16 12:24:18;;;;;;;12.97;3.50;;;11.90;99.90;;;;;;4972867;28;20045;-78
2022/02/16 12:26:50;;;;;;;13.52;2.78;;;11.80;99.90;;;;;;4945604;28;20034;-78
2022/02/16 12:29:18;;;;;;;15.68;3.03;;;11.80;99.90;;;;;;4973999;28;20145;-78
2022/02/16 12:31:53;;;;;;;16.45;3.13;;;11.80;99.90;;;;;;4974592;28;21759;-78
2022/02/16 12:34:25;;;;;;;19.30;3.42;;;11.70;99.90;;;;;;4973517;28;20075;-77
2022/02/16 12:36:53;;;;;;;17.63;2.92;;;11.70;99.90;;;;;;4972829;28;20026;-78
2022/02/16 12:39:19;;;;;;;15.90;3.25;;;11.70;99.90;;;;;;4976901;28;20030;-78
2022/02/16 12:41:46;;;;;;;16.92;3.45;;;11.80;99.90;;;;;;4976992;28;21459;-78
2022/02/16 12:44:28;;;;;;;18.25;2.75;;;11.70;99.90;;;;;;4974458;28;20035;-78